Weather History for Sanford, ME

Change the Weather History Date:

Sunday, December 30, 2012

  Actual Average Record
Temperature  
Mean Temperature 20 °F -  
Max Temperature 26 °F 32 °F 48 °F (2003)
Min Temperature 15 °F 14 °F 0 °F (2002)
Degree Days  
Heating Degree Days 44    
Moisture  
Dew Point 17 °F    
Average Humidity 80    
Maximum Humidity 100    
Minimum Humidity 68    
Precipitation  
Precipitation 0.03 in - - ()
Sea Level Pressure  
Sea Level Pressure 29.60 in    
Wind  
Wind Speed 15 mph (WNW)    
Max Wind Speed 24 mph    
Max Gust Speed 36 mph    
Visibility 6 miles    
Events      
Averages and records for this station are not official NWS values.
T = Trace of Precipitation, MM = Missing Value Source: NWS Daily Summary

Daily Weather History Graph

Daily Weather History Graph

Search for Another Location

Airport:

Trip Planner

Search our weather history database for the weather conditions in past years. The results will help you decide how hot, cold, wet, or windy it might be!

Date:

Astronomy

Dec. 30, 2012 Rise Set
Actual Time 7:15 AM EST 4:16 PM EST
Civil Twilight 6:42 AM EST 4:48 PM EST
Nautical Twilight 6:06 AM EST 5:24 PM EST
Astronomical Twilight 5:32 AM EST 5:59 PM EST
Moon 6:48 PM EST (12/30) 8:18 AM EST (12/30)
Length of Visible Light 10h 05m
Length of Day
9h 00m
Waning Gibbous, 95% of the Moon is Illuminated
Dec 30
Waning Gibbous
Jan 4
Last Quarter
Jan 11
New
Jan 18
First Quarter
Jan 26
Full

Hourly Weather History & Observations

Time (EST) Temp. Windchill Dew Point Humidity Pressure Visibility Wind Dir Wind Speed Gust Speed Precip Events Conditions
12:15 AM 24.8 °F 11.9 °F 21.2 °F 86% 29.43 in 1.8 mi North 16.1 mph 25.3 mph N/A   Overcast
12:35 AM 24.8 °F 10.7 °F 21.2 °F 86% 29.42 in 2.5 mi North 19.6 mph 23.0 mph N/A   Overcast
12:55 AM 24.8 °F 12.4 °F 19.4 °F 80% 29.43 in 3.0 mi NNW 15.0 mph - N/A   Overcast
1:15 AM 24.8 °F 11.5 °F 21.2 °F 86% 29.42 in 3.0 mi North 17.3 mph - N/A   Overcast
1:55 AM 24.8 °F 12.9 °F 19.4 °F 80% 29.42 in 5.0 mi NNW 13.8 mph - N/A   Overcast
2:15 AM 24.8 °F 12.4 °F 24.8 °F 100% 29.42 in 5.0 mi NNW 15.0 mph 23.0 mph N/A   Overcast
2:35 AM 24.8 °F 12.9 °F 19.4 °F 80% 29.42 in 5.0 mi NNW 13.8 mph 21.9 mph N/A   Overcast
2:55 AM 24.8 °F 13.4 °F 24.8 °F 100% 29.42 in 5.0 mi NNW 12.7 mph 19.6 mph N/A   Overcast
3:15 AM 24.8 °F 16.1 °F 17.6 °F 74% 29.42 in 10.0 mi NNW 8.1 mph - N/A   Overcast
3:35 AM 24.8 °F 17.9 °F 24.8 °F 100% 29.42 in 10.0 mi NW 5.8 mph - N/A   Mostly Cloudy
3:55 AM 24.8 °F 19.1 °F 19.4 °F 80% 29.42 in 10.0 mi NW 4.6 mph - N/A   Scattered Clouds
4:15 AM 24.8 °F 17.9 °F 24.8 °F 100% 29.43 in 10.0 mi NNW 5.8 mph - N/A   Mostly Cloudy
4:35 AM 26.6 °F 18.2 °F 19.4 °F 74% 29.43 in 10.0 mi WNW 8.1 mph - N/A   Overcast
4:55 AM 26.6 °F 17.5 °F 24.8 °F 93% 29.43 in 10.0 mi NW 9.2 mph - N/A   Overcast
5:15 AM 26.6 °F 18.2 °F 19.4 °F 74% 29.44 in 10.0 mi WNW 8.1 mph - N/A   Overcast
5:35 AM 26.6 °F 19.1 °F 19.4 °F 74% 29.45 in 10.0 mi NW 6.9 mph - N/A   Mostly Cloudy
5:55 AM 26.6 °F 18.2 °F 26.6 °F 100% 29.46 in 10.0 mi WNW 8.1 mph - N/A   Overcast
6:15 AM 26.6 °F 20.0 °F 19.4 °F 74% 29.47 in 10.0 mi WNW 5.8 mph - 0.01 in   Overcast
6:35 AM 26.6 °F 18.2 °F 26.6 °F 100% 29.48 in 7.0 mi WNW 8.1 mph - 0.01 in   Overcast
6:55 AM 26.6 °F 16.8 °F 17.6 °F 69% 29.49 in 6.0 mi WNW 10.4 mph - 0.02 in   Overcast
7:15 AM 26.6 °F 15.7 °F 26.6 °F 100% 29.50 in 10.0 mi WNW 12.7 mph 18.4 mph N/A   Overcast
7:35 AM 26.6 °F 16.2 °F 21.2 °F 80% 29.51 in 10.0 mi WNW 11.5 mph - N/A   Overcast
7:55 AM 24.8 °F 14.6 °F 19.4 °F 80% 29.52 in 10.0 mi WNW 10.4 mph 18.4 mph N/A   Mostly Cloudy
8:15 AM 24.8 °F 15.3 °F 23.0 °F 93% 29.53 in 10.0 mi WNW 9.2 mph 17.3 mph 0.01 in   Partly Cloudy
8:35 AM 24.8 °F 11.9 °F 17.6 °F 74% 29.53 in 10.0 mi WNW 16.1 mph 23.0 mph 0.01 in   Clear
8:55 AM 24.8 °F 11.1 °F 24.8 °F 100% 29.54 in 6.0 mi WNW 18.4 mph 29.9 mph 0.01 in   Clear
9:15 AM 24.8 °F 11.9 °F 17.6 °F 74% 29.54 in 8.0 mi WNW 16.1 mph 26.5 mph N/A   Clear
9:35 AM 24.8 °F 11.9 °F 21.2 °F 86% 29.55 in 2.5 mi WNW 16.1 mph 26.5 mph N/A   Clear
9:55 AM 24.8 °F 12.9 °F 19.4 °F 80% 29.57 in 1.2 mi WNW 13.8 mph 31.1 mph N/A   Clear
10:15 AM 24.8 °F 10.7 °F 17.6 °F 74% 29.57 in 1.8 mi WNW 19.6 mph 27.6 mph N/A   Clear
10:35 AM 24.8 °F 10.7 °F 21.2 °F 86% 29.58 in 1.2 mi WNW 19.6 mph 32.2 mph N/A   Scattered Clouds
10:55 AM 24.8 °F 10.0 °F 15.8 °F 69% 29.57 in 1.8 mi WNW 21.9 mph 28.8 mph N/A   Overcast
11:15 AM 23.0 °F 8.7 °F 19.4 °F 86% 29.57 in 1.8 mi WNW 18.4 mph 29.9 mph N/A   Overcast
11:35 AM 23.0 °F 7.6 °F 19.4 °F 86% 29.57 in 1.5 mi WNW 21.9 mph 34.5 mph N/A   Mostly Cloudy
11:55 AM 23.0 °F 8.7 °F 19.4 °F 86% 29.57 in 3.0 mi WNW 18.4 mph 28.8 mph N/A   Scattered Clouds
12:15 PM 23.0 °F 8.0 °F 19.4 °F 86% 29.57 in 2.0 mi WNW 20.7 mph 33.4 mph N/A   Overcast
12:35 PM 23.0 °F 8.3 °F 17.6 °F 80% 29.58 in 7.0 mi West 19.6 mph 24.2 mph N/A   Overcast
12:55 PM 23.0 °F 9.2 °F 19.4 °F 86% 29.58 in 7.0 mi West 17.3 mph 24.2 mph N/A   Overcast
1:15 PM 23.0 °F 9.6 °F 15.8 °F 74% 29.59 in 9.0 mi WNW 16.1 mph 24.2 mph N/A   Overcast
1:35 PM 23.0 °F 9.6 °F 19.4 °F 86% 29.59 in 5.0 mi WNW 16.1 mph 26.5 mph N/A   Overcast
1:55 PM 23.0 °F 8.3 °F 14.0 °F 68% 29.60 in 3.0 mi WNW 19.6 mph 29.9 mph N/A   Overcast
2:15 PM 23.0 °F 8.7 °F 17.6 °F 80% 29.61 in 2.5 mi WNW 18.4 mph 29.9 mph N/A   Overcast
2:35 PM 23.0 °F 9.6 °F 14.0 °F 68% 29.62 in 2.0 mi WNW 16.1 mph 31.1 mph N/A   Mostly Cloudy
2:55 PM 23.0 °F 8.7 °F 15.8 °F 74% 29.63 in 2.0 mi WNW 18.4 mph 29.9 mph N/A   Clear
3:15 PM 21.2 °F 7.3 °F 15.8 °F 80% 29.64 in 2.5 mi WNW 16.1 mph 32.2 mph N/A   Clear
3:35 PM 21.2 °F 6.0 °F 15.8 °F 80% 29.64 in 1.8 mi WNW 19.6 mph 33.4 mph N/A   Clear
3:55 PM 21.2 °F 6.4 °F 14.0 °F 74% 29.66 in 3.0 mi WNW 18.4 mph 33.4 mph N/A   Clear
4:15 PM 21.2 °F 7.3 °F 15.8 °F 80% 29.67 in 5.0 mi WNW 16.1 mph 26.5 mph N/A   Clear
4:35 PM 21.2 °F 8.3 °F 12.2 °F 68% 29.68 in 8.0 mi WNW 13.8 mph 24.2 mph N/A   Clear
4:55 PM 21.2 °F 6.8 °F 12.2 °F 68% 29.69 in 7.0 mi WNW 17.3 mph 28.8 mph N/A   Clear
5:15 PM 19.4 °F 4.5 °F 12.2 °F 74% 29.70 in 8.0 mi West 17.3 mph 23.0 mph N/A   Clear
5:35 PM 19.4 °F 3.2 °F 14.0 °F 80% 29.71 in 7.0 mi West 20.7 mph 25.3 mph N/A   Clear
5:55 PM 19.4 °F 3.2 °F 12.2 °F 74% 29.72 in 3.0 mi West 20.7 mph 35.7 mph N/A   Clear
6:15 PM 19.4 °F 2.1 °F 12.2 °F 74% 29.73 in 2.5 mi West 24.2 mph 34.5 mph N/A   Clear
6:35 PM 17.6 °F 0.9 °F 10.4 °F 73% 29.75 in 3.0 mi West 20.7 mph 31.1 mph N/A   Clear
6:55 PM 17.6 °F 2.7 °F 12.2 °F 79% 29.77 in 5.0 mi WNW 16.1 mph 26.5 mph N/A   Clear
7:15 PM 17.6 °F 0.9 °F 10.4 °F 73% 29.78 in 3.0 mi WNW 20.7 mph 27.6 mph N/A   Clear
7:35 PM 17.6 °F 0.5 °F 12.2 °F 79% 29.79 in 5.0 mi WNW 21.9 mph 29.9 mph N/A   Clear
7:55 PM 17.6 °F 2.2 °F 10.4 °F 73% 29.80 in 3.0 mi WNW 17.3 mph 31.1 mph N/A   Clear
8:15 PM 17.6 °F 1.7 °F 8.6 °F 68% 29.81 in 6.0 mi WNW 18.4 mph 27.6 mph N/A   Clear
8:35 PM 15.8 °F -0.2 °F 10.4 °F 79% 29.82 in 5.0 mi West 17.3 mph 28.8 mph N/A   Clear
8:55 PM 15.8 °F -0.2 °F 8.6 °F 73% 29.82 in 9.0 mi WNW 17.3 mph 26.5 mph N/A   Clear
9:15 PM 15.8 °F -1.1 °F 10.4 °F 79% 29.82 in 7.0 mi West 19.6 mph 29.9 mph N/A   Clear
9:35 PM 15.8 °F -0.6 °F 10.4 °F 79% 29.82 in 6.0 mi West 18.4 mph 27.6 mph N/A   Clear
9:55 PM 15.8 °F 0.3 °F 10.4 °F 79% 29.83 in 7.0 mi WNW 16.1 mph 25.3 mph N/A   Clear
10:15 PM 15.8 °F 2.1 °F 10.4 °F 79% 29.84 in 10.0 mi West 12.7 mph - N/A   Clear
10:35 PM 15.8 °F 2.1 °F 8.6 °F 73% 29.84 in 10.0 mi West 12.7 mph - N/A   Clear
10:55 PM 15.8 °F 2.1 °F 10.4 °F 79% 29.85 in 10.0 mi West 12.7 mph 17.3 mph N/A   Clear
11:35 PM 17.6 °F 3.2 °F 10.4 °F 73% 29.84 in 10.0 mi WNW 15.0 mph 25.3 mph N/A   Clear
11:55 PM 17.6 °F 5.0 °F 12.2 °F 79% 29.84 in 8.0 mi NW 11.5 mph 24.2 mph N/A   Clear